createdAt,value
2018-02-10T00:01:57.659Z,78.30
2018-02-10T00:04:25.397Z,78.87
2018-02-10T00:06:53.157Z,73.40
2018-02-10T00:09:21.785Z,79.17
2018-02-10T00:11:49.952Z,74.10
2018-02-10T00:14:17.706Z,71.93
2018-02-10T00:16:45.670Z,69.70
2018-02-10T00:19:13.372Z,65.60
2018-02-10T00:21:42.116Z,73.30
2018-02-10T00:24:10.095Z,70.03
2018-02-10T00:26:37.919Z,70.30
2018-02-10T00:29:05.673Z,75.10
2018-02-10T00:31:33.696Z,79.93
2018-02-10T00:34:01.714Z,75.83
2018-02-10T00:36:30.420Z,72.73
2018-02-10T00:38:58.352Z,68.70
2018-02-10T00:41:26.149Z,66.93
2018-02-10T00:43:54.106Z,75.27
2018-02-10T00:46:21.985Z,76.60
2018-02-10T00:48:49.751Z,63.60
2018-02-10T00:51:18.397Z,69.10
2018-02-10T00:53:46.340Z,71.23
2018-02-10T00:56:14.830Z,69.43
2018-02-10T00:58:43.335Z,69.00
2018-02-10T01:01:11.087Z,78.00
2018-02-10T01:03:38.943Z,66.37
2018-02-10T01:06:06.858Z,70.83
2018-02-10T01:08:34.633Z,77.90
2018-02-10T01:11:02.717Z,74.27
2018-02-10T01:13:31.487Z,81.00
2018-02-10T01:15:59.414Z,71.30
2018-02-10T01:18:27.282Z,71.00
2018-02-10T01:20:55.557Z,69.93
2018-02-10T01:23:23.298Z,74.20
2018-02-10T01:25:51.837Z,77.70
2018-02-10T01:28:20.594Z,69.77
2018-02-10T01:30:48.353Z,73.40
2018-02-10T01:33:16.296Z,75.43
2018-02-10T01:35:44.107Z,68.83
2018-02-10T01:38:11.839Z,67.93
2018-02-10T01:40:39.588Z,71.97
2018-02-10T01:43:08.253Z,69.27
2018-02-10T01:45:36.781Z,79.90
2018-02-10T01:48:04.647Z,70.67
2018-02-10T01:50:32.735Z,76.03
2018-02-10T01:53:00.495Z,74.07
2018-02-10T01:55:28.365Z,73.50
2018-02-10T01:57:56.234Z,81.23
2018-02-10T02:00:24.179Z,67.83
2018-02-10T02:02:51.969Z,67.93
2018-02-10T02:05:19.825Z,82.53
2018-02-10T02:07:47.694Z,74.57
2018-02-10T02:10:15.668Z,68.83
2018-02-10T02:12:43.535Z,68.53
2018-02-10T02:15:11.405Z,71.40
2018-02-10T02:17:39.963Z,73.13
2018-02-10T02:20:07.763Z,67.40
2018-02-10T02:22:36.019Z,70.83
2018-02-10T02:25:03.882Z,77.00
2018-02-10T02:27:31.939Z,70.47
2018-02-10T02:29:59.723Z,75.03
2018-02-10T02:32:27.497Z,72.47
2018-02-10T02:34:55.350Z,78.43
2018-02-10T02:37:23.200Z,70.87
2018-02-10T02:39:51.170Z,61.27
2018-02-10T02:42:18.964Z,73.53
2018-02-10T02:44:46.848Z,80.03
2018-02-10T02:47:15.483Z,76.43
2018-02-10T02:49:43.375Z,64.13
2018-02-10T02:52:11.238Z,75.07
2018-02-10T02:54:39.087Z,75.43
2018-02-10T02:57:06.949Z,67.60
2018-02-10T02:59:34.818Z,67.00
2018-02-10T03:02:03.911Z,65.13
2018-02-10T03:04:31.733Z,66.03
2018-02-10T03:07:00.284Z,74.23
2018-02-10T03:09:28.121Z,63.00
2018-02-10T03:11:55.864Z,62.20
2018-02-10T03:14:23.857Z,67.00
2018-02-10T03:16:52.578Z,57.20
2018-02-10T03:19:20.325Z,63.00
2018-02-10T03:21:49.144Z,61.80
2018-02-10T03:24:17.681Z,61.83
2018-02-10T03:26:45.426Z,68.17
2018-02-10T03:29:13.328Z,73.07
2018-02-10T03:31:41.064Z,71.83
2018-02-10T03:34:08.836Z,65.93
2018-02-10T03:36:36.618Z,69.07
2018-02-10T03:39:04.453Z,72.07
2018-02-10T03:41:32.466Z,68.10
2018-02-10T03:44:00.508Z,66.93
2018-02-10T03:46:28.270Z,76.10
2018-02-10T03:48:56.133Z,73.30
2018-02-10T03:51:24.562Z,70.27
2018-02-10T03:53:53.612Z,73.60
2018-02-10T03:56:22.012Z,66.77
2018-02-10T03:58:49.942Z,70.50
2018-02-10T04:01:17.844Z,77.20
2018-02-10T04:03:45.605Z,75.03
2018-02-10T04:06:13.574Z,74.00
2018-02-10T04:08:41.333Z,66.43
2018-02-10T04:11:09.206Z,63.43
2018-02-10T04:13:37.071Z,74.93
2018-02-10T04:16:04.973Z,70.30
2018-02-10T04:18:32.912Z,62.77
2018-02-10T04:21:00.699Z,75.97
2018-02-10T04:23:29.216Z,69.03
2018-02-10T04:25:57.119Z,69.00
2018-02-10T04:28:24.910Z,71.37
2018-02-10T04:30:53.430Z,72.37
2018-02-10T04:33:21.230Z,60.10
2018-02-10T04:35:48.977Z,66.43
2018-02-10T04:38:16.706Z,63.80
2018-02-10T04:40:44.632Z,67.97
2018-02-10T04:43:12.626Z,62.73
2018-02-10T04:45:41.177Z,64.23
2018-02-10T04:48:09.031Z,66.27
2018-02-10T04:50:37.016Z,64.27
2018-02-10T04:53:04.961Z,64.80
2018-02-10T04:55:33.058Z,67.33
2018-02-10T04:58:01.920Z,58.90
2018-02-10T05:00:29.714Z,68.40
2018-02-10T05:02:57.451Z,68.00
2018-02-10T05:05:25.198Z,64.93
2018-02-10T05:07:53.054Z,67.73
2018-02-10T05:10:20.938Z,61.80
2018-02-10T05:12:48.725Z,63.20
2018-02-10T05:15:16.490Z,62.00
2018-02-10T05:17:44.224Z,67.77
2018-02-10T05:20:11.949Z,58.50
2018-02-10T05:22:40.627Z,65.27
2018-02-10T05:25:08.484Z,71.33
2018-02-10T05:27:37.734Z,63.53
2018-02-10T05:30:05.685Z,62.70
2018-02-10T05:32:34.193Z,70.23
2018-02-10T05:35:02.480Z,58.50
2018-02-10T05:37:30.364Z,58.20
2018-02-10T05:39:58.109Z,67.97
2018-02-10T05:42:25.854Z,71.77
2018-02-10T05:44:53.657Z,64.30
2018-02-10T05:47:22.329Z,69.73
2018-02-10T05:49:50.106Z,74.93
2018-02-10T05:52:18.158Z,71.57
2018-02-10T05:54:45.943Z,81.97
2018-02-10T05:57:13.905Z,77.07
2018-02-10T05:59:41.709Z,66.37
2018-02-10T06:02:10.218Z,62.00
2018-02-10T06:04:37.951Z,61.07
2018-02-10T06:07:06.502Z,67.43
2018-02-10T06:09:34.263Z,69.37
2018-02-10T06:12:02.341Z,74.93
2018-02-10T06:14:30.200Z,76.87
2018-02-10T06:16:57.937Z,68.63
2018-02-10T06:19:25.730Z,73.27
2018-02-10T06:21:53.565Z,77.27
2018-02-10T06:24:21.342Z,71.93
2018-02-10T06:26:49.312Z,73.70
2018-02-10T06:29:17.179Z,78.10
2018-02-10T06:31:45.043Z,74.43
2018-02-10T06:34:13.318Z,65.47
2018-02-10T06:36:41.287Z,65.90
2018-02-10T06:39:09.973Z,67.23
2018-02-10T06:41:37.699Z,65.37
2018-02-10T06:44:06.339Z,70.67
2018-02-10T06:46:34.205Z,70.37
2018-02-10T06:49:02.362Z,65.60
2018-02-10T06:51:30.100Z,63.00
2018-02-10T06:53:58.107Z,57.40
2018-02-10T06:56:26.084Z,66.50
2018-02-10T06:58:53.834Z,68.90
2018-02-10T07:01:21.614Z,66.63
2018-02-10T07:03:49.387Z,58.30
2018-02-10T07:06:17.222Z,62.63
2018-02-10T07:08:45.005Z,57.00
2018-02-10T07:11:12.864Z,60.67
2018-02-10T07:13:40.710Z,62.03
2018-02-10T07:16:08.500Z,67.90
2018-02-10T07:18:36.450Z,69.57
2018-02-10T07:21:04.229Z,64.23
2018-02-10T07:23:32.017Z,59.77
2018-02-10T07:26:00.706Z,63.43
2018-02-10T07:28:28.656Z,77.13
2018-02-10T07:30:56.927Z,76.80
2018-02-10T07:33:24.875Z,79.57
2018-02-10T07:35:52.685Z,70.10
2018-02-10T07:38:21.532Z,67.23
2018-02-10T07:40:49.393Z,69.67
2018-02-10T07:43:17.365Z,76.50
2018-02-10T07:45:45.161Z,80.10
2018-02-10T07:48:13.029Z,70.00
2018-02-10T07:50:40.823Z,83.00
2018-02-10T07:53:09.465Z,73.77
2018-02-10T07:55:37.434Z,82.23
2018-02-10T07:58:05.185Z,74.70
2018-02-10T08:00:33.352Z,63.93
2018-02-10T08:03:01.502Z,76.53
2018-02-10T08:05:29.311Z,123.00
2018-02-10T08:07:57.175Z,81.23
2018-02-10T08:10:25.655Z,83.67
2018-02-10T08:12:53.408Z,95.73
2018-02-10T08:15:21.371Z,75.70
2018-02-10T08:17:49.255Z,74.90
2018-02-10T08:20:17.029Z,74.67
2018-02-10T08:22:44.865Z,75.50
2018-02-10T08:25:12.741Z,64.50
2018-02-10T08:27:40.618Z,74.10
2018-02-10T08:30:08.991Z,69.23
2018-02-10T08:32:36.762Z,75.33
2018-02-10T08:35:04.711Z,68.73
2018-02-10T08:37:32.706Z,70.17
2018-02-10T08:40:00.710Z,66.20
2018-02-10T08:42:30.976Z,131.57
2018-02-10T08:44:58.942Z,80.67
2018-02-10T08:47:27.933Z,87.07
2018-02-10T08:49:56.002Z,83.87
2018-02-10T08:52:25.201Z,95.07
2018-02-10T08:54:53.278Z,83.90
2018-02-10T08:57:21.240Z,84.10
2018-02-10T08:59:49.214Z,83.00
2018-02-10T09:02:17.486Z,84.67
2018-02-10T09:04:45.482Z,76.70
2018-02-10T09:07:13.526Z,92.20
2018-02-10T09:09:42.260Z,88.03
2018-02-10T09:12:10.208Z,72.83
2018-02-10T09:14:39.223Z,84.20
2018-02-10T09:17:08.063Z,75.60
2018-02-10T09:19:35.934Z,150.87
2018-02-10T09:22:04.717Z,103.93
2018-02-10T09:24:33.037Z,81.63
2018-02-10T09:27:02.189Z,90.87
2018-02-10T09:29:30.159Z,88.73
2018-02-10T09:31:58.130Z,81.03
2018-02-10T09:34:26.107Z,86.93
2018-02-10T09:36:54.272Z,88.97
2018-02-10T09:39:22.558Z,89.13
2018-02-10T09:41:50.581Z,85.53
2018-02-10T09:44:18.586Z,76.60
2018-02-10T09:46:46.656Z,87.33
2018-02-10T09:49:14.633Z,88.70
2018-02-10T09:51:42.595Z,85.90
2018-02-10T09:54:10.715Z,88.07
2018-02-10T09:56:39.458Z,93.10
2018-02-10T09:59:07.513Z,84.07
2018-02-10T10:01:35.405Z,84.53
2018-02-10T10:04:03.362Z,87.23
2018-02-10T10:06:31.642Z,94.80
2018-02-10T10:08:59.533Z,88.43
2018-02-10T10:11:28.123Z,86.90
2018-02-10T10:13:57.082Z,89.60
2018-02-10T10:16:24.999Z,92.87
2018-02-10T10:18:54.245Z,102.93
2018-02-10T10:21:22.011Z,87.73
2018-02-10T10:23:49.752Z,80.53
2018-02-10T10:26:17.721Z,81.00
2018-02-10T10:28:45.742Z,90.87
2018-02-10T10:31:13.827Z,85.47
2018-02-10T10:33:42.776Z,92.60
2018-02-10T10:36:11.049Z,90.40
2018-02-10T10:38:38.842Z,68.80
2018-02-10T10:41:06.649Z,84.83
2018-02-10T10:43:34.410Z,81.87
2018-02-10T10:46:02.647Z,84.27
2018-02-10T10:48:30.412Z,80.30
2018-02-10T10:50:58.351Z,88.13
2018-02-10T10:53:26.246Z,81.63
2018-02-10T10:55:54.105Z,83.87
2018-02-10T10:58:21.883Z,83.27
2018-02-10T11:00:50.739Z,82.60
2018-02-10T11:03:18.758Z,69.30
2018-02-10T11:05:46.986Z,73.87
2018-02-10T11:08:14.856Z,68.87
2018-02-10T11:10:42.761Z,66.40
2018-02-10T11:13:10.609Z,67.33
2018-02-10T11:15:39.287Z,50.80
2018-02-10T11:18:07.173Z,55.70
2018-02-10T11:20:35.030Z,46.80
2018-02-10T11:23:03.119Z,44.60
2018-02-10T11:25:31.756Z,36.17
2018-02-10T11:27:59.643Z,24.50
2018-02-10T11:30:27.466Z,22.73
2018-02-10T11:32:55.376Z,19.40
2018-02-10T11:35:23.240Z,21.07
2018-02-10T11:37:51.198Z,15.83
2018-02-10T11:40:19.076Z,18.30
2018-02-10T11:42:46.932Z,13.87
2018-02-10T11:45:15.163Z,16.37
2018-02-10T11:47:43.799Z,22.83
2018-02-10T11:50:11.651Z,19.15
2018-02-10T11:52:39.853Z,12.30
2018-02-10T11:55:08.324Z,13.90
2018-02-10T11:57:36.172Z,14.93
2018-02-10T12:00:04.139Z,16.63
2018-02-10T12:02:31.927Z,17.57
2018-02-10T12:05:00.079Z,23.93
2018-02-10T12:07:27.955Z,21.13
2018-02-10T12:09:55.930Z,18.13
2018-02-10T12:12:23.694Z,16.17
2018-02-10T12:14:51.543Z,17.53
2018-02-10T12:17:19.320Z,22.20
2018-02-10T12:19:47.190Z,17.73
2018-02-10T12:22:14.964Z,18.87
2018-02-10T12:24:42.723Z,19.17
2018-02-10T12:27:10.596Z,26.43
2018-02-10T12:29:38.562Z,20.80
2018-02-10T12:32:06.432Z,19.73
2018-02-10T12:34:34.210Z,19.70
2018-02-10T12:37:02.940Z,17.57
2018-02-10T12:39:30.748Z,17.00
2018-02-10T12:41:58.818Z,16.47
2018-02-10T12:44:27.663Z,18.23
2018-02-10T12:46:55.681Z,18.13
2018-02-10T12:49:35.322Z,16.90
2018-02-10T12:52:04.598Z,17.90
2018-02-10T12:54:32.462Z,13.87
2018-02-10T12:57:00.403Z,15.40
2018-02-10T12:59:28.401Z,12.17
2018-02-10T13:01:56.177Z,21.57
2018-02-10T13:04:24.048Z,29.97
2018-02-10T13:06:53.350Z,14.80
2018-02-10T13:09:21.217Z,14.60
2018-02-10T13:11:48.981Z,14.30
2018-02-10T13:14:16.850Z,14.40
2018-02-10T13:16:54.822Z,12.60
2018-02-10T13:19:23.327Z,15.50
2018-02-10T13:21:51.191Z,13.70
2018-02-10T13:24:19.152Z,11.37
2018-02-10T13:26:47.009Z,11.37
2018-02-10T13:29:15.004Z,12.67
2018-02-10T13:31:42.864Z,15.03
2018-02-10T13:34:11.034Z,11.33
2018-02-10T13:36:39.006Z,12.07
2018-02-10T13:39:06.851Z,15.40
2018-02-10T13:41:35.221Z,15.73
2018-02-10T13:44:03.214Z,17.70
2018-02-10T13:46:31.272Z,13.47
2018-02-10T13:48:59.242Z,35.43
2018-02-10T13:51:27.133Z,45.27
2018-02-10T13:53:55.826Z,21.10
2018-02-10T13:56:24.576Z,18.93
2018-02-10T13:58:52.710Z,10.97
2018-02-10T14:01:21.257Z,18.07
2018-02-10T14:03:49.119Z,15.33
2018-02-10T14:06:16.972Z,16.80
2018-02-10T14:08:44.942Z,16.87
2018-02-10T14:11:13.247Z,15.43
2018-02-10T14:13:41.986Z,11.70
2018-02-10T14:16:09.786Z,11.90
2018-02-10T14:18:37.835Z,19.93
2018-02-10T14:21:05.625Z,17.17
2018-02-10T14:23:33.440Z,13.97
2018-02-10T14:26:01.542Z,13.60
2018-02-10T14:28:29.509Z,20.27
2018-02-10T14:30:57.396Z,16.93
2018-02-10T14:33:25.342Z,16.53
2018-02-10T14:35:53.419Z,18.90
2018-02-10T14:38:21.587Z,23.00
2018-02-10T14:40:49.371Z,19.90
2018-02-10T14:43:17.350Z,27.07
2018-02-10T14:45:45.111Z,20.87
2018-02-10T14:48:12.975Z,18.80
2018-02-10T14:50:41.021Z,21.63
2018-02-10T14:53:09.176Z,24.33
2018-02-10T14:55:36.976Z,14.90
2018-02-10T14:58:04.933Z,28.40
2018-02-10T15:00:32.999Z,21.13
2018-02-10T15:03:01.274Z,19.50
2018-02-10T15:05:29.140Z,28.23
2018-02-10T15:07:57.009Z,23.13
2018-02-10T15:10:24.987Z,20.80
2018-02-10T15:12:52.870Z,16.70
2018-02-10T15:15:20.811Z,19.47
2018-02-10T15:17:48.923Z,21.73
2018-02-10T15:20:17.281Z,17.47
2018-02-10T15:22:45.173Z,19.30
2018-02-10T15:25:13.920Z,21.47
2018-02-10T15:27:41.888Z,21.90
2018-02-10T15:30:21.758Z,20.30
2018-02-10T15:33:01.615Z,19.03
2018-02-10T15:35:29.507Z,18.03
2018-02-10T15:37:58.047Z,22.93
2018-02-10T15:40:25.928Z,26.50
2018-02-10T15:42:55.320Z,20.50
2018-02-10T15:45:23.467Z,19.73
2018-02-10T15:47:51.671Z,20.07
2018-02-10T15:50:20.109Z,23.07
2018-02-10T15:52:48.537Z,19.60
2018-02-10T15:55:16.866Z,25.97
2018-02-10T15:57:44.883Z,27.90
2018-02-10T16:00:12.922Z,25.60
2018-02-10T16:02:42.342Z,26.20
2018-02-10T16:05:10.190Z,27.43
2018-02-10T16:07:38.266Z,27.53
2018-02-10T16:10:06.355Z,27.83
2018-02-10T16:12:34.253Z,23.90
2018-02-10T16:15:03.024Z,24.77
2018-02-10T16:17:30.885Z,24.67
2018-02-10T16:19:58.920Z,24.20
2018-02-10T16:22:26.907Z,27.47
2018-02-10T16:24:54.879Z,23.83
2018-02-10T16:27:22.747Z,21.37
2018-02-10T16:29:51.305Z,28.40
2018-02-10T16:32:19.076Z,29.13
2018-02-10T16:34:47.040Z,25.83
2018-02-10T16:37:14.834Z,27.03
2018-02-10T16:39:42.910Z,24.23
2018-02-10T16:42:12.589Z,25.30
2018-02-10T16:44:40.585Z,26.20
2018-02-10T16:47:08.543Z,29.77
2018-02-10T16:49:36.434Z,29.53
2018-02-10T16:52:05.187Z,30.20
2018-02-10T16:54:33.100Z,23.87
2018-02-10T16:57:01.121Z,30.10
2018-02-10T16:59:28.930Z,30.27
2018-02-10T17:01:57.668Z,31.30
2018-02-10T17:04:26.086Z,29.83
2018-02-10T17:06:54.018Z,50.77
2018-02-10T17:09:22.906Z,43.93
2018-02-10T17:11:52.011Z,33.93
2018-02-10T17:14:20.022Z,34.33
2018-02-10T17:16:48.974Z,35.10
2018-02-10T17:19:17.330Z,35.27
2018-02-10T17:21:45.834Z,34.27
2018-02-10T17:24:14.671Z,34.27
2018-02-10T17:26:43.505Z,29.03
2018-02-10T17:29:11.465Z,33.50
2018-02-10T17:31:39.537Z,34.17
2018-02-10T17:34:07.643Z,40.10
2018-02-10T17:36:35.718Z,52.17
2018-02-10T17:39:05.291Z,39.87
2018-02-10T17:41:33.365Z,39.73
2018-02-10T17:44:01.386Z,32.73
2018-02-10T17:46:30.243Z,38.30
2018-02-10T17:49:00.422Z,43.00
2018-02-10T17:51:28.413Z,30.90
2018-02-10T17:53:57.027Z,34.97
2018-02-10T17:56:24.888Z,35.40
2018-02-10T17:58:52.770Z,39.30
2018-02-10T18:01:22.138Z,31.13
2018-02-10T18:03:50.099Z,39.47
2018-02-10T18:06:18.101Z,37.80
2018-02-10T18:08:46.751Z,36.90
2018-02-10T18:11:15.759Z,33.10
2018-02-10T18:13:44.430Z,27.50
2018-02-10T18:16:12.596Z,28.90
2018-02-10T18:18:40.573Z,33.27
2018-02-10T18:21:08.615Z,29.00
2018-02-10T18:23:36.407Z,29.93
2018-02-10T18:26:04.209Z,27.20
2018-02-10T18:28:33.475Z,28.50
2018-02-10T18:31:01.542Z,33.37
2018-02-10T18:33:29.306Z,37.60
2018-02-10T18:35:57.193Z,30.23
2018-02-10T18:38:25.349Z,32.00
2018-02-10T18:40:53.419Z,35.70
2018-02-10T18:43:21.420Z,30.00
2018-02-10T18:45:49.382Z,34.67
2018-02-10T18:48:17.327Z,26.63
2018-02-10T18:50:45.293Z,19.13
2018-02-10T18:53:13.379Z,18.13
2018-02-10T18:55:41.247Z,18.23
2018-02-10T18:58:09.309Z,72.70
2018-02-10T19:00:37.090Z,19.20
2018-02-10T19:03:05.571Z,15.40
2018-02-10T19:05:33.511Z,12.73
2018-02-10T19:08:01.569Z,12.83
2018-02-10T19:10:29.621Z,12.37
2018-02-10T19:12:58.349Z,11.67
2018-02-10T19:15:26.308Z,13.30
2018-02-10T19:17:54.184Z,13.70
2018-02-10T19:20:22.487Z,15.90
2018-02-10T19:22:50.424Z,11.63
2018-02-10T19:25:18.419Z,15.13
2018-02-10T19:27:46.623Z,15.67
2018-02-10T19:30:15.591Z,15.57
2018-02-10T19:32:44.565Z,12.77
2018-02-10T19:35:12.649Z,11.13
2018-02-10T19:37:41.750Z,11.73
2018-02-10T19:40:09.703Z,12.10
2018-02-10T19:42:38.018Z,14.80
2018-02-10T19:45:06.956Z,15.70
2018-02-10T19:47:35.537Z,15.63
2018-02-10T19:50:03.609Z,12.23
2018-02-10T19:52:31.924Z,12.07
2018-02-10T19:54:59.903Z,13.20
2018-02-10T19:57:28.749Z,14.50
2018-02-10T19:59:56.923Z,13.30
2018-02-10T20:02:24.923Z,13.13
2018-02-10T20:04:54.204Z,14.30
2018-02-10T20:07:22.497Z,10.93
2018-02-10T20:09:50.744Z,13.93
2018-02-10T20:12:18.709Z,15.53
2018-02-10T20:14:46.627Z,15.43
2018-02-10T20:17:15.565Z,16.00
2018-02-10T20:19:43.646Z,18.53
2018-02-10T20:22:11.799Z,16.27
2018-02-10T20:24:40.145Z,18.93
2018-02-10T20:27:09.092Z,16.73
2018-02-10T20:29:36.963Z,18.83
2018-02-10T20:32:04.919Z,18.97
2018-02-10T20:34:32.911Z,20.40
2018-02-10T20:37:00.966Z,18.37
2018-02-10T20:39:28.926Z,19.37
2018-02-10T20:41:57.026Z,23.60
2018-02-10T20:44:25.604Z,17.47
2018-02-10T20:46:53.482Z,16.30
2018-02-10T20:49:21.626Z,16.73
2018-02-10T20:51:49.866Z,16.33
2018-02-10T20:54:17.769Z,39.63
2018-02-10T20:56:46.459Z,23.97
2018-02-10T20:59:14.453Z,23.80
2018-02-10T21:01:42.581Z,17.00
2018-02-10T21:04:10.662Z,15.67
2018-02-10T21:06:38.553Z,21.30
2018-02-10T21:09:06.662Z,22.07
2018-02-10T21:11:35.348Z,24.70
2018-02-10T21:14:04.328Z,21.13
2018-02-10T21:16:32.249Z,24.37
2018-02-10T21:19:00.362Z,26.60
2018-02-10T21:21:28.599Z,23.63
2018-02-10T21:23:56.683Z,20.03
2018-02-10T21:26:24.941Z,24.17
2018-02-10T21:28:53.254Z,25.17
2018-02-10T21:31:21.410Z,22.77
2018-02-10T21:33:49.467Z,23.73
2018-02-10T21:36:17.660Z,21.97
2018-02-10T21:38:45.760Z,22.13
2018-02-10T21:41:14.796Z,20.13
2018-02-10T21:43:42.766Z,21.67
2018-02-10T21:46:10.850Z,26.63
2018-02-10T21:48:39.119Z,28.90
2018-02-10T21:51:07.109Z,30.47
2018-02-10T21:53:35.285Z,33.10
2018-02-10T21:56:03.951Z,31.47
2018-02-10T21:58:32.733Z,37.07
2018-02-10T22:01:00.736Z,33.47
2018-02-10T22:03:28.773Z,30.70
2018-02-10T22:05:56.696Z,33.90
2018-02-10T22:08:25.449Z,29.40
2018-02-10T22:10:53.428Z,28.27
2018-02-10T22:13:21.432Z,29.97
2018-02-10T22:15:49.252Z,27.23
2018-02-10T22:18:17.219Z,29.97
2018-02-10T22:20:45.171Z,29.87
2018-02-10T22:23:13.048Z,32.10
2018-02-10T22:25:40.943Z,26.87
2018-02-10T22:28:08.972Z,30.17
2018-02-10T22:30:36.951Z,35.10
2018-02-10T22:33:04.838Z,33.80
2018-02-10T22:35:32.704Z,29.80
2018-02-10T22:38:00.689Z,33.40
2018-02-10T22:40:28.610Z,30.37
2018-02-10T22:42:56.683Z,32.60
2018-02-10T22:45:24.573Z,32.37
2018-02-10T22:47:52.331Z,33.80
2018-02-10T22:50:20.398Z,30.23
2018-02-10T22:52:48.375Z,43.43
2018-02-10T22:55:16.424Z,34.60
2018-02-10T22:57:44.523Z,36.67
2018-02-10T23:00:12.590Z,41.33
2018-02-10T23:02:40.355Z,35.83
2018-02-10T23:05:08.326Z,31.80
2018-02-10T23:07:36.185Z,29.63
2018-02-10T23:10:05.483Z,37.40
2018-02-10T23:12:33.433Z,32.57
2018-02-10T23:15:01.377Z,30.27
2018-02-10T23:17:29.367Z,35.30
2018-02-10T23:19:57.158Z,31.27
2018-02-10T23:22:24.949Z,24.70
2018-02-10T23:24:53.484Z,30.30
2018-02-10T23:27:21.351Z,30.03
2018-02-10T23:29:49.336Z,27.77
2018-02-10T23:32:17.289Z,33.40
2018-02-10T23:34:45.155Z,31.30
2018-02-10T23:37:13.018Z,29.73
2018-02-10T23:39:40.800Z,24.40
2018-02-10T23:42:08.570Z,30.73
2018-02-10T23:44:36.345Z,27.97
2018-02-10T23:47:04.096Z,30.73
2018-02-10T23:49:31.960Z,29.50
2018-02-10T23:51:59.705Z,23.43
2018-02-10T23:54:27.491Z,26.47
2018-02-10T23:56:55.461Z,28.73
2018-02-10T23:59:23.231Z,24.77
